Time;durP1;ratioP1;P1;durP2;ratioP2;P2;SDS_P1;SDS_P2;PMS_P1;PMS_P2;Temp;Humidity;BMP_temperature;BMP_pressure;BME280_temperature;BME280_humidity;BME280_pressure;Samples;Min_cycle;Max_cycle;Signal;HPM_P1;HPM_P2
2022/03/10 00:00:39;;;;;;;26.30;7.30;;;;;;;;;;4893266;23;20155;-90
2022/03/10 00:03:07;;;;;;;19.63;7.82;;;;;;;;;;4880953;29;20029;-92
2022/03/10 00:05:39;;;;;;;15.77;7.18;;;;;;;;;;4879969;29;20052;-91
2022/03/10 00:08:05;;;;;;;14.00;6.85;;;;;;;;;;4881044;29;20068;-91
2022/03/10 00:10:31;;;;;;;18.15;7.45;;;;;;;;;;4880367;29;20032;-90
2022/03/10 00:13:03;;;;;;;16.90;7.07;;;;;;;;;;4880658;29;20021;-87
2022/03/10 00:15:29;;;;;;;18.48;7.63;;;;;;;;;;4880351;29;20032;-89
2022/03/10 00:17:56;;;;;;;20.40;7.45;;;;;;;;;;4880283;29;20025;-90
2022/03/10 00:20:22;;;;;;;15.15;6.68;;;;;;;;;;4880371;29;20060;-85
2022/03/10 00:22:58;;;;;;;15.27;7.20;;;;;;;;;;4880275;29;20542;-90
2022/03/10 00:25:33;;;;;;;20.63;6.68;;;;;;;;;;4879868;29;20044;-92
2022/03/10 00:28:00;;;;;;;19.23;6.65;;;;;;;;;;4880120;29;20447;-92
2022/03/10 00:30:26;;;;;;;23.33;7.80;;;;;;;;;;4879853;29;20096;-88
2022/03/10 00:32:53;;;;;;;14.25;6.70;;;;;;;;;;4881167;29;20390;-86
2022/03/10 00:35:20;;;;;;;15.38;6.72;;;;;;;;;;4873947;29;20048;-87
2022/03/10 00:37:48;;;;;;;17.65;6.55;;;;;;;;;;4885528;29;20025;-88
2022/03/10 00:40:15;;;;;;;18.77;7.10;;;;;;;;;;4896039;29;20371;-90
2022/03/10 00:42:47;;;;;;;16.13;6.70;;;;;;;;;;4897883;29;20065;-92
2022/03/10 00:45:14;;;;;;;17.58;7.35;;;;;;;;;;4895189;29;20570;-87
2022/03/10 00:47:40;;;;;;;17.05;6.90;;;;;;;;;;4895168;29;20040;-88
2022/03/10 00:50:07;;;;;;;16.20;7.10;;;;;;;;;;4895763;29;20093;-87
2022/03/10 00:52:38;;;;;;;19.73;6.75;;;;;;;;;;4881058;29;20194;-92
2022/03/10 00:55:12;;;;;;;15.98;6.80;;;;;;;;;;4880895;29;20575;-93
2022/03/10 00:57:39;;;;;;;17.25;5.80;;;;;;;;;;4895262;29;20068;-90
2022/03/10 01:00:14;;;;;;;18.85;6.80;;;;;;;;;;4895683;29;20558;-91
2022/03/10 01:02:52;;;;;;;14.05;6.22;;;;;;;;;;4895246;29;20141;-92
2022/03/10 01:05:22;;;;;;;18.15;7.57;;;;;;;;;;4895343;29;20045;-92
2022/03/10 01:07:48;;;;;;;18.45;7.57;;;;;;;;;;4896255;29;20079;-89
2022/03/10 01:10:15;;;;;;;15.45;6.93;;;;;;;;;;4894854;29;20028;-87
2022/03/10 01:12:42;;;;;;;17.40;7.45;;;;;;;;;;4895098;29;20084;-87
2022/03/10 01:15:09;;;;;;;15.63;6.90;;;;;;;;;;4895257;29;20025;-88
2022/03/10 01:17:41;;;;;;;14.18;6.80;;;;;;;;;;4895830;29;20471;-92
2022/03/10 01:20:08;;;;;;;14.48;7.30;;;;;;;;;;4897191;29;20025;-92
2022/03/10 01:23:11;;;;;;;15.93;7.30;;;;;;;;;;4896462;29;20536;-91
2022/03/10 01:25:37;;;;;;;17.95;7.53;;;;;;;;;;4898043;29;20065;-88
2022/03/10 01:28:10;;;;;;;16.83;7.07;;;;;;;;;;4907887;29;20017;-91
2022/03/10 01:30:36;;;;;;;18.73;7.38;;;;;;;;;;4918406;29;20017;-89
2022/03/10 01:33:15;;;;;;;17.23;7.45;;;;;;;;;;4896322;29;20401;-92
2022/03/10 01:35:41;;;;;;;14.68;7.15;;;;;;;;;;4894978;29;20029;-92
2022/03/10 01:38:08;;;;;;;17.15;7.65;;;;;;;;;;4894692;29;20068;-93
2022/03/10 01:40:34;;;;;;;22.02;7.95;;;;;;;;;;4894660;29;20482;-91
2022/03/10 01:43:00;;;;;;;21.35;7.82;;;;;;;;;;4894778;29;20049;-92
2022/03/10 01:45:28;;;;;;;19.02;8.10;;;;;;;;;;4894492;29;20100;-87
2022/03/10 01:47:54;;;;;;;16.77;7.40;;;;;;;;;;4896137;29;20082;-87
2022/03/10 01:50:22;;;;;;;18.65;7.65;;;;;;;;;;4895675;29;20053;-89
2022/03/10 01:52:48;;;;;;;16.70;7.65;;;;;;;;;;4895858;29;20064;-88
2022/03/10 01:55:22;;;;;;;18.77;7.97;;;;;;;;;;4894373;29;20033;-92
2022/03/10 01:57:48;;;;;;;18.95;8.32;;;;;;;;;;4894439;29;20036;-88
2022/03/10 02:00:15;;;;;;;22.83;8.63;;;;;;;;;;4893782;29;20048;-89
2022/03/10 02:02:44;;;;;;;22.33;8.45;;;;;;;;;;4894644;29;20029;-92
2022/03/10 02:05:10;;;;;;;20.52;8.00;;;;;;;;;;4894425;29;20052;-88
2022/03/10 02:10:28;;;;;;;23.90;8.82;;;;;;;;;;4880861;29;20044;-87
2022/03/10 02:12:55;;;;;;;19.50;8.82;;;;;;;;;;4894015;29;20036;-87
2022/03/10 02:18:07;;;;;;;22.95;8.57;;;;;;;;;;4880124;29;20506;-86
2022/03/10 02:20:34;;;;;;;22.48;8.77;;;;;;;;;;4895925;29;20177;-85
2022/03/10 02:23:00;;;;;;;25.30;9.13;;;;;;;;;;4897589;29;20037;-89
2022/03/10 02:25:27;;;;;;;18.30;8.27;;;;;;;;;;4897846;29;20037;-90
2022/03/10 02:27:54;;;;;;;21.40;9.63;;;;;;;;;;4899714;29;20040;-86
2022/03/10 02:30:22;;;;;;;24.27;9.75;;;;;;;;;;4897392;29;20035;-85
2022/03/10 02:32:48;;;;;;;24.98;9.70;;;;;;;;;;4897615;29;20029;-87
2022/03/10 02:35:15;;;;;;;26.23;9.00;;;;;;;;;;4897143;29;20053;-87
2022/03/10 02:37:41;;;;;;;22.38;9.75;;;;;;;;;;4897306;29;20115;-89
2022/03/10 02:40:08;;;;;;;20.60;9.63;;;;;;;;;;4897390;29;20028;-91
2022/03/10 02:42:41;;;;;;;21.15;9.48;;;;;;;;;;4897424;29;20029;-91
2022/03/10 02:45:19;;;;;;;22.20;8.93;;;;;;;;;;4897181;29;20045;-92
2022/03/10 02:47:47;;;;;;;23.13;8.73;;;;;;;;;;4897540;29;20102;-91
2022/03/10 02:50:17;;;;;;;23.02;8.93;;;;;;;;;;4896859;29;20085;-92
2022/03/10 02:52:44;;;;;;;18.77;8.55;;;;;;;;;;4897005;29;20124;-89
2022/03/10 02:55:10;;;;;;;22.70;8.68;;;;;;;;;;4897269;29;20021;-87
2022/03/10 02:57:37;;;;;;;18.88;7.97;;;;;;;;;;4897225;29;20033;-92
2022/03/10 03:00:04;;;;;;;23.30;9.23;;;;;;;;;;4896515;29;20073;-90
2022/03/10 03:02:30;;;;;;;23.63;9.50;;;;;;;;;;4897297;29;20085;-91
2022/03/10 03:04:57;;;;;;;25.70;9.20;;;;;;;;;;4897287;29;20025;-88
2022/03/10 03:07:26;;;;;;;19.30;8.30;;;;;;;;;;4899661;29;20057;-90
2022/03/10 03:09:52;;;;;;;19.25;8.93;;;;;;;;;;4883705;29;20439;-88
2022/03/10 03:12:18;;;;;;;20.90;9.27;;;;;;;;;;4896866;29;20080;-87
2022/03/10 03:14:44;;;;;;;20.92;8.65;;;;;;;;;;4914011;23;20060;-87
2022/03/10 03:17:11;;;;;;;24.83;9.65;;;;;;;;;;4884677;29;20404;-87
2022/03/10 03:19:40;;;;;;;26.65;10.20;;;;;;;;;;4883921;29;20098;-92
2022/03/10 03:22:06;;;;;;;29.05;9.68;;;;;;;;;;4884835;29;20028;-91
2022/03/10 03:24:33;;;;;;;19.35;8.52;;;;;;;;;;4901772;29;20033;-91
2022/03/10 03:27:00;;;;;;;20.13;8.30;;;;;;;;;;4901893;29;20036;-85
2022/03/10 03:29:32;;;;;;;21.25;8.48;;;;;;;;;;4884667;29;20032;-90
2022/03/10 03:31:59;;;;;;;22.53;8.73;;;;;;;;;;4884445;29;20397;-87
2022/03/10 03:34:25;;;;;;;19.92;7.72;;;;;;;;;;4955442;23;20045;-86
2022/03/10 03:36:51;;;;;;;26.00;8.73;;;;;;;;;;4885387;29;20036;-86
2022/03/10 03:39:18;;;;;;;24.88;9.60;;;;;;;;;;4880973;29;20076;-86
2022/03/10 03:41:47;;;;;;;24.85;9.23;;;;;;;;;;4880944;29;20549;-90
2022/03/10 03:44:25;;;;;;;20.55;8.63;;;;;;;;;;4881033;29;20025;-88
2022/03/10 03:46:55;;;;;;;23.90;8.45;;;;;;;;;;4881243;29;20041;-90
2022/03/10 03:49:33;;;;;;;18.05;8.50;;;;;;;;;;4881086;29;20037;-91
2022/03/10 03:52:17;;;;;;;18.33;8.15;;;;;;;;;;4880539;29;20033;-90
2022/03/10 03:54:43;;;;;;;20.33;8.40;;;;;;;;;;4880983;29;20080;-85
2022/03/10 03:57:19;;;;;;;21.35;8.07;;;;;;;;;;4882505;29;20116;-90
2022/03/10 03:59:45;;;;;;;20.50;8.98;;;;;;;;;;4895049;29;20394;-86
2022/03/10 04:02:23;;;;;;;16.73;8.07;;;;;;;;;;4889630;29;20041;-90
2022/03/10 04:04:56;;;;;;;21.52;8.25;;;;;;;;;;4881571;29;20124;-90
2022/03/10 04:07:31;;;;;;;22.00;9.20;;;;;;;;;;4880876;29;20086;-86
2022/03/10 04:10:07;;;;;;;21.70;8.95;;;;;;;;;;4880475;29;20345;-86
2022/03/10 04:12:34;;;;;;;19.52;8.98;;;;;;;;;;4880115;29;20044;-90
2022/03/10 04:15:00;;;;;;;25.83;8.90;;;;;;;;;;4880250;29;20029;-90
2022/03/10 04:17:27;;;;;;;24.33;9.70;;;;;;;;;;4880617;29;20119;-86
2022/03/10 04:19:53;;;;;;;24.30;9.52;;;;;;;;;;4879948;29;20025;-86
2022/03/10 04:22:22;;;;;;;24.45;9.43;;;;;;;;;;4879755;29;20115;-90
2022/03/10 04:25:05;;;;;;;21.27;9.50;;;;;;;;;;4879987;29;20123;-91
2022/03/10 04:27:37;;;;;;;22.60;9.13;;;;;;;;;;4878656;29;20044;-91
2022/03/10 04:30:06;;;;;;;27.05;9.73;;;;;;;;;;4879036;29;20056;-90
2022/03/10 04:32:47;;;;;;;30.65;11.05;;;;;;;;;;4880595;29;20041;-91
2022/03/10 04:35:18;;;;;;;21.52;9.23;;;;;;;;;;4878484;29;20088;-91
2022/03/10 04:37:51;;;;;;;22.55;9.73;;;;;;;;;;4879740;29;20546;-91
2022/03/10 04:40:33;;;;;;;28.30;10.23;;;;;;;;;;4879538;29;20076;-91
2022/03/10 04:42:59;;;;;;;24.30;9.75;;;;;;;;;;4879167;29;20029;-90
2022/03/10 04:45:51;;;;;;;30.75;10.32;;;;;;;;;;4879435;29;20033;-91
2022/03/10 04:48:30;;;;;;;19.60;8.60;;;;;;;;;;4879559;29;20037;-90
2022/03/10 04:50:56;;;;;;;26.08;9.52;;;;;;;;;;4879298;29;20036;-91
2022/03/10 04:53:25;;;;;;;28.33;9.75;;;;;;;;;;4877708;29;20589;-90
2022/03/10 04:55:51;;;;;;;23.77;9.68;;;;;;;;;;4865436;29;20036;-88
2022/03/10 04:58:38;;;;;;;25.88;10.82;;;;;;;;;;4879063;29;20059;-88
2022/03/10 05:01:04;;;;;;;23.98;10.07;;;;;;;;;;4879052;29;20116;-84
2022/03/10 05:03:32;;;;;;;23.67;9.75;;;;;;;;;;4878665;29;20510;-90
2022/03/10 05:05:59;;;;;;;27.65;9.75;;;;;;;;;;4879249;29;20501;-89
2022/03/10 05:11:11;;;;;;;24.27;9.32;;;;;;;;;;4980530;23;20048;-90
2022/03/10 05:13:38;;;;;;;17.42;8.55;;;;;;;;;;4898241;29;20577;-86
2022/03/10 05:16:04;;;;;;;22.20;8.40;;;;;;;;;;4881702;29;20028;-86
2022/03/10 05:18:30;;;;;;;24.08;9.23;;;;;;;;;;4882275;29;20028;-89
2022/03/10 05:20:56;;;;;;;22.15;9.85;;;;;;;;;;4898948;29;20029;-86
2022/03/10 05:23:23;;;;;;;19.67;9.50;;;;;;;;;;4898975;29;20470;-86
2022/03/10 05:25:49;;;;;;;30.75;9.70;;;;;;;;;;4882092;29;20430;-89
2022/03/10 05:28:15;;;;;;;23.90;9.43;;;;;;;;;;4881990;29;20135;-87
2022/03/10 05:30:42;;;;;;;18.92;9.05;;;;;;;;;;4882026;29;20024;-89
2022/03/10 05:33:09;;;;;;;20.60;9.13;;;;;;;;;;4882245;29;20025;-85
2022/03/10 05:35:38;;;;;;;21.50;9.25;;;;;;;;;;4887703;29;20032;-89
2022/03/10 05:38:05;;;;;;;19.55;8.77;;;;;;;;;;4885261;29;20153;-86
2022/03/10 05:40:31;;;;;;;34.78;16.08;;;;;;;;;;4882161;29;20414;-88
2022/03/10 05:42:57;;;;;;;51.47;19.35;;;;;;;;;;4899039;29;20366;-87
2022/03/10 05:45:24;;;;;;;28.55;14.82;;;;;;;;;;4882002;29;20052;-86
2022/03/10 05:47:51;;;;;;;20.80;11.05;;;;;;;;;;4879868;29;20040;-84
2022/03/10 05:50:18;;;;;;;24.13;9.93;;;;;;;;;;4877778;29;20497;-83
2022/03/10 05:52:45;;;;;;;21.13;9.85;;;;;;;;;;4885309;29;20048;-85
2022/03/10 05:55:12;;;;;;;22.90;10.70;;;;;;;;;;4882028;29;20025;-86
2022/03/10 05:57:38;;;;;;;20.90;10.50;;;;;;;;;;4885726;29;20056;-85
2022/03/10 06:03:40;;;;;;;23.50;10.02;;;;;;;;;;4870141;29;20088;-87
2022/03/10 06:09:16;;;;;;;23.27;10.60;;;;;;;;;;4901809;29;20496;-88
2022/03/10 06:11:43;;;;;;;23.95;10.40;;;;;;;;;;4885788;29;20335;-88
2022/03/10 06:17:12;;;;;;;22.53;9.53;;;;;;;;;;4903307;29;20545;-89
2022/03/10 06:19:48;;;;;;;23.00;10.07;;;;;;;;;;4887864;29;20032;-94
2022/03/10 06:22:29;;;;;;;23.40;10.55;;;;;;;;;;4886411;29;20032;-89
2022/03/10 06:27:25;;;;;;;17.90;9.23;;;;;;;;;;4899866;29;20049;-85
2022/03/10 06:29:55;;;;;;;23.35;8.70;;;;;;;;;;4910685;29;20036;-86
2022/03/10 06:32:33;;;;;;;20.02;8.85;;;;;;;;;;5166470;23;20538;-91
2022/03/10 06:37:36;;;;;;;16.15;7.15;;;;;;;;;;4965204;23;20052;-85
2022/03/10 06:40:15;;;;;;;15.95;7.60;;;;;;;;;;4885336;29;20371;-88
2022/03/10 06:42:47;;;;;;;14.85;5.55;;;;;;;;;;4888137;29;20028;-88
2022/03/10 06:56:41;;;;;;;9.43;4.50;;;;;;;;;;5538675;23;20045;-92
2022/03/10 06:59:07;;;;;;;12.52;5.10;;;;;;;;;;4885689;29;20035;-89
2022/03/10 07:01:34;;;;;;;10.13;4.43;;;;;;;;;;4885850;29;20065;-91
2022/03/10 07:04:00;;;;;;;13.25;4.97;;;;;;;;;;4885618;29;20637;-90
2022/03/10 07:06:28;;;;;;;8.82;5.03;;;;;;;;;;4901786;29;20474;-87
2022/03/10 07:08:54;;;;;;;7.88;3.40;;;;;;;;;;4885130;29;20029;-89
2022/03/10 07:11:20;;;;;;;7.72;3.72;;;;;;;;;;4886507;29;20104;-89
2022/03/10 07:13:47;;;;;;;5.65;2.55;;;;;;;;;;4886631;29;20076;-88
2022/03/10 07:16:14;;;;;;;10.52;4.07;;;;;;;;;;4901554;29;20037;-90
2022/03/10 07:18:40;;;;;;;11.00;3.42;;;;;;;;;;4878433;29;20031;-88
2022/03/10 07:21:09;;;;;;;9.63;3.70;;;;;;;;;;4885819;29;20040;-91
2022/03/10 07:23:35;;;;;;;7.57;3.70;;;;;;;;;;4866453;29;20028;-91
2022/03/10 08:07:02;;;;;;;9.27;3.28;;;;;;;;;;5183423;23;20088;-85
2022/03/10 08:09:29;;;;;;;7.00;3.38;;;;;;;;;;4875962;29;20141;-89
2022/03/10 08:11:55;;;;;;;7.10;3.20;;;;;;;;;;4882251;29;20179;-87
2022/03/10 08:14:21;;;;;;;7.93;2.55;;;;;;;;;;4882749;29;20059;-88
2022/03/10 08:16:47;;;;;;;9.05;3.22;;;;;;;;;;4882667;29;20040;-89
2022/03/10 08:19:13;;;;;;;10.07;3.80;;;;;;;;;;4882173;29;20024;-90
2022/03/10 08:21:39;;;;;;;9.30;2.92;;;;;;;;;;4881816;29;20397;-88
2022/03/10 08:24:06;;;;;;;4.25;1.95;;;;;;;;;;4882262;29;20024;-87
2022/03/10 08:26:32;;;;;;;6.13;3.20;;;;;;;;;;4881026;29;20084;-85
2022/03/10 08:28:59;;;;;;;8.65;2.50;;;;;;;;;;4881777;29;20025;-85
2022/03/10 08:31:26;;;;;;;6.18;2.53;;;;;;;;;;4882056;29;20123;-87
2022/03/10 08:33:52;;;;;;;5.28;2.17;;;;;;;;;;4887150;29;20080;-85
2022/03/10 08:36:18;;;;;;;5.07;2.35;;;;;;;;;;4881537;29;20024;-86
2022/03/10 08:38:44;;;;;;;5.65;2.63;;;;;;;;;;4881918;29;20032;-86
2022/03/10 08:41:11;;;;;;;8.57;2.35;;;;;;;;;;4881015;29;20478;-85
2022/03/10 08:43:37;;;;;;;4.28;1.58;;;;;;;;;;4881879;29;20078;-88
2022/03/10 08:46:04;;;;;;;8.27;2.38;;;;;;;;;;4880813;29;20524;-86
2022/03/10 08:48:34;;;;;;;6.65;2.85;;;;;;;;;;4882100;29;20037;-86
2022/03/10 08:51:01;;;;;;;6.15;2.60;;;;;;;;;;4882166;29;20039;-86
2022/03/10 08:53:28;;;;;;;8.82;3.63;;;;;;;;;;4882234;29;20115;-87
2022/03/10 08:55:54;;;;;;;7.53;3.38;;;;;;;;;;4882360;29;20036;-86
2022/03/10 08:58:20;;;;;;;12.02;3.83;;;;;;;;;;4898657;29;20108;-88
2022/03/10 09:00:46;;;;;;;7.13;2.80;;;;;;;;;;4882280;29;20025;-87
2022/03/10 09:03:12;;;;;;;6.32;2.63;;;;;;;;;;4883305;29;20390;-88
2022/03/10 09:05:40;;;;;;;7.82;3.15;;;;;;;;;;4898411;29;20362;-86
2022/03/10 09:08:06;;;;;;;5.75;2.85;;;;;;;;;;4882090;29;20096;-87
2022/03/10 09:11:10;;;;;;;5.75;2.85;;;;;;;;;;4882130;29;20037;-87
2022/03/10 09:13:36;;;;;;;6.55;2.92;;;;;;;;;;4882087;29;20021;-86
2022/03/10 09:16:02;;;;;;;7.05;2.38;;;;;;;;;;4882237;29;20036;-89
2022/03/10 09:21:32;;;;;;;6.47;2.67;;;;;;;;;;4917285;23;20047;-90
2022/03/10 09:23:58;;;;;;;8.35;2.45;;;;;;;;;;4904725;29;20070;-86
2022/03/10 09:26:24;;;;;;;4.22;1.48;;;;;;;;;;4902847;29;20056;-86
2022/03/10 09:28:50;;;;;;;7.82;3.10;;;;;;;;;;4886225;29;20036;-88
2022/03/10 09:31:17;;;;;;;8.57;3.42;;;;;;;;;;4886294;29;20032;-89
2022/03/10 09:33:45;;;;;;;7.45;3.13;;;;;;;;;;4886208;29;20519;-88
2022/03/10 09:36:11;;;;;;;6.68;2.70;;;;;;;;;;4885064;29;20068;-88
2022/03/10 09:38:37;;;;;;;7.53;2.85;;;;;;;;;;4889896;29;20036;-88
2022/03/10 09:41:06;;;;;;;7.25;3.10;;;;;;;;;;4884162;29;20043;-89
2022/03/10 09:43:33;;;;;;;3.90;1.60;;;;;;;;;;4885924;29;20032;-88
2022/03/10 09:46:00;;;;;;;7.18;1.35;;;;;;;;;;4903178;29;20065;-91
2022/03/10 09:48:28;;;;;;;8.57;3.33;;;;;;;;;;4884739;29;20068;-88
2022/03/10 09:54:01;;;;;;;6.05;2.72;;;;;;;;;;4887135;29;20035;-86
2022/03/10 09:56:31;;;;;;;7.07;2.92;;;;;;;;;;4880677;29;20056;-90
2022/03/10 09:58:59;;;;;;;8.48;4.13;;;;;;;;;;4882345;29;20483;-87
2022/03/10 10:01:29;;;;;;;4.63;1.63;;;;;;;;;;4885526;29;20092;-87
2022/03/10 10:03:55;;;;;;;8.38;4.07;;;;;;;;;;4885202;29;20047;-87
2022/03/10 10:06:24;;;;;;;6.90;3.78;;;;;;;;;;4883055;29;20398;-90
2022/03/10 10:08:58;;;;;;;6.85;3.67;;;;;;;;;;4885941;29;20478;-91
2022/03/10 10:11:39;;;;;;;9.13;2.60;;;;;;;;;;4885031;29;20032;-88
2022/03/10 10:14:05;;;;;;;10.65;3.67;;;;;;;;;;4885219;29;20029;-88
2022/03/10 10:16:31;;;;;;;5.13;2.03;;;;;;;;;;4883279;29;20025;-88
2022/03/10 10:18:58;;;;;;;3.85;1.85;;;;;;;;;;4885740;29;20534;-86
2022/03/10 10:21:25;;;;;;;6.97;2.97;;;;;;;;;;4901930;29;20052;-86
2022/03/10 10:23:53;;;;;;;5.88;2.05;;;;;;;;;;4884798;29;20031;-86
2022/03/10 10:26:20;;;;;;;6.60;3.67;;;;;;;;;;4884223;29;20395;-87
2022/03/10 10:28:53;;;;;;;6.80;2.50;;;;;;;;;;4885166;29;20189;-87
2022/03/10 10:31:20;;;;;;;7.25;2.72;;;;;;;;;;4885752;29;20099;-87
2022/03/10 10:34:00;;;;;;;5.95;2.55;;;;;;;;;;4885181;29;20060;-88
2022/03/10 10:36:28;;;;;;;4.03;1.63;;;;;;;;;;4884968;29;20032;-88
2022/03/10 10:39:03;;;;;;;4.18;1.85;;;;;;;;;;4874842;29;20033;-87
2022/03/10 10:41:32;;;;;;;6.53;2.63;;;;;;;;;;4865759;29;20466;-90
2022/03/10 10:44:03;;;;;;;5.88;2.95;;;;;;;;;;4866283;29;20124;-90
2022/03/10 10:46:31;;;;;;;5.88;2.45;;;;;;;;;;4865150;29;20041;-89
2022/03/10 10:48:58;;;;;;;9.95;4.05;;;;;;;;;;4866403;29;20032;-90
2022/03/10 10:52:03;;;;;;;4.93;2.53;;;;;;;;;;4865651;29;20025;-90
2022/03/10 10:54:43;;;;;;;9.07;3.95;;;;;;;;;;4847020;29;20053;-91
2022/03/10 10:57:26;;;;;;;6.60;2.53;;;;;;;;;;4863648;29;20029;-87
2022/03/10 11:02:21;;;;;;;8.02;3.58;;;;;;;;;;4920694;23;20055;-88
2022/03/10 11:04:54;;;;;;;6.88;3.53;;;;;;;;;;4883616;29;20052;-88
2022/03/10 11:07:21;;;;;;;6.97;2.92;;;;;;;;;;4884236;29;20502;-89
2022/03/10 11:10:19;;;;;;;9.23;3.80;;;;;;;;;;4892196;29;20054;-91
2022/03/10 11:12:45;;;;;;;8.52;3.80;;;;;;;;;;4885735;29;20040;-93
2022/03/10 11:15:16;;;;;;;6.13;3.33;;;;;;;;;;4905450;23;20053;-91
2022/03/10 11:18:16;;;;;;;5.05;2.08;;;;;;;;;;4888323;29;20060;-89
2022/03/10 11:20:45;;;;;;;8.27;3.58;;;;;;;;;;4880557;29;20085;-86
2022/03/10 11:23:29;;;;;;;6.25;2.80;;;;;;;;;;4864932;29;20124;-91
2022/03/10 11:25:56;;;;;;;10.48;3.65;;;;;;;;;;4854031;29;20064;-88
2022/03/10 11:31:29;;;;;;;6.55;3.13;;;;;;;;;;4915789;23;20059;-90
2022/03/10 11:33:58;;;;;;;6.75;2.72;;;;;;;;;;4885544;29;20029;-89
2022/03/10 11:36:30;;;;;;;7.28;3.65;;;;;;;;;;4885588;29;20032;-96
2022/03/10 11:39:08;;;;;;;6.30;3.17;;;;;;;;;;4885909;29;20101;-94
2022/03/10 11:41:50;;;;;;;6.60;3.00;;;;;;;;;;4883081;29;20057;-94
2022/03/10 11:44:23;;;;;;;6.78;3.03;;;;;;;;;;4885355;29;20052;-91
2022/03/10 11:46:59;;;;;;;6.38;2.80;;;;;;;;;;4883245;29;20062;-90
2022/03/10 11:49:44;;;;;;;7.28;3.25;;;;;;;;;;4884985;29;20025;-88
2022/03/10 11:52:22;;;;;;;9.80;3.60;;;;;;;;;;4884469;29;20037;-87
2022/03/10 11:55:05;;;;;;;6.55;2.20;;;;;;;;;;4890012;29;20040;-88
2022/03/10 11:57:51;;;;;;;6.20;2.78;;;;;;;;;;4871252;29;20029;-89
2022/03/10 12:00:37;;;;;;;6.22;2.58;;;;;;;;;;4864941;29;20033;-92
2022/03/10 12:03:03;;;;;;;8.77;3.63;;;;;;;;;;4853117;29;20033;-89
2022/03/10 12:05:49;;;;;;;10.20;3.05;;;;;;;;;;4899120;23;20063;-89
2022/03/10 12:08:18;;;;;;;7.55;3.33;;;;;;;;;;4889782;29;20086;-90
2022/03/10 12:10:45;;;;;;;6.60;3.10;;;;;;;;;;4880724;29;20025;-86
2022/03/10 12:13:24;;;;;;;7.88;2.30;;;;;;;;;;4885714;29;20119;-88
2022/03/10 12:15:53;;;;;;;6.55;3.00;;;;;;;;;;4829680;23;2016585;-93
2022/03/10 12:18:24;;;;;;;6.05;2.78;;;;;;;;;;4885799;29;20044;-88
2022/03/10 12:20:53;;;;;;;7.47;3.17;;;;;;;;;;4878984;29;20562;-85
2022/03/10 12:23:22;;;;;;;5.50;3.00;;;;;;;;;;4868455;29;20165;-85
2022/03/10 12:26:10;;;;;;;7.95;2.97;;;;;;;;;;4869397;29;20089;-87
2022/03/10 12:28:42;;;;;;;6.22;3.15;;;;;;;;;;4864070;29;20033;-90
2022/03/10 12:31:19;;;;;;;8.20;3.38;;;;;;;;;;4864716;29;20034;-87
2022/03/10 12:33:59;;;;;;;7.32;3.03;;;;;;;;;;4868254;29;20029;-93
2022/03/10 12:36:39;;;;;;;5.82;2.72;;;;;;;;;;4873948;29;20029;-87
2022/03/10 12:39:08;;;;;;;9.40;3.13;;;;;;;;;;4870484;29;20036;-86
2022/03/10 12:41:36;;;;;;;6.72;2.97;;;;;;;;;;4862158;29;20583;-88
2022/03/10 12:44:03;;;;;;;15.70;3.40;;;;;;;;;;4877361;29;20025;-89
2022/03/10 12:46:29;;;;;;;7.25;3.10;;;;;;;;;;4874534;29;20106;-84
2022/03/10 12:48:59;;;;;;;6.45;2.65;;;;;;;;;;4876990;29;20029;-90
2022/03/10 12:51:33;;;;;;;7.35;2.85;;;;;;;;;;4880893;29;20033;-88
2022/03/10 12:53:59;;;;;;;12.25;2.72;;;;;;;;;;4880062;29;20078;-86
2022/03/10 12:56:27;;;;;;;6.15;2.90;;;;;;;;;;4879503;29;20108;-87
2022/03/10 12:58:54;;;;;;;16.40;3.38;;;;;;;;;;4879941;29;20089;-88
2022/03/10 13:01:22;;;;;;;5.22;2.30;;;;;;;;;;4879232;29;20387;-86
2022/03/10 13:03:49;;;;;;;9.00;3.10;;;;;;;;;;4879053;29;20435;-85
2022/03/10 13:06:19;;;;;;;14.00;3.00;;;;;;;;;;4879343;29;20089;-86
2022/03/10 13:08:50;;;;;;;7.95;3.00;;;;;;;;;;4883622;29;20025;-85
2022/03/10 13:11:42;;;;;;;8.15;3.58;;;;;;;;;;4890016;29;20089;-89
2022/03/10 13:14:12;;;;;;;6.18;3.25;;;;;;;;;;4876609;29;20033;-90
2022/03/10 13:16:49;;;;;;;6.22;3.25;;;;;;;;;;4873541;29;20409;-88
2022/03/10 13:19:25;;;;;;;6.55;3.25;;;;;;;;;;4880183;29;20032;-88
2022/03/10 13:21:55;;;;;;;9.88;3.40;;;;;;;;;;4879384;29;20141;-89
2022/03/10 13:24:42;;;;;;;9.52;3.60;;;;;;;;;;4878943;29;20037;-88
2022/03/10 13:27:18;;;;;;;10.73;3.20;;;;;;;;;;4878936;29;20052;-90
2022/03/10 13:29:47;;;;;;;6.40;3.38;;;;;;;;;;4879121;29;20025;-90
2022/03/10 13:32:23;;;;;;;7.15;3.28;;;;;;;;;;4878700;29;20029;-87
2022/03/10 13:34:50;;;;;;;9.60;4.03;;;;;;;;;;4880373;29;20423;-90
2022/03/10 13:37:17;;;;;;;10.15;3.90;;;;;;;;;;4879289;29;20085;-89
2022/03/10 13:39:45;;;;;;;7.25;3.08;;;;;;;;;;4879061;29;20120;-89
2022/03/10 13:42:12;;;;;;;6.93;3.35;;;;;;;;;;4878811;29;20058;-87
2022/03/10 13:44:38;;;;;;;10.07;3.47;;;;;;;;;;4878853;29;20383;-88
2022/03/10 13:47:04;;;;;;;8.25;3.72;;;;;;;;;;4880025;29;20089;-88
2022/03/10 13:49:43;;;;;;;8.55;3.50;;;;;;;;;;4879704;29;20059;-89
2022/03/10 13:52:13;;;;;;;12.10;4.03;;;;;;;;;;4878870;29;20029;-90
2022/03/10 13:54:41;;;;;;;6.55;3.17;;;;;;;;;;4880868;29;20065;-87
2022/03/10 14:02:49;;;;;;;9.07;3.90;;;;;;;;;;4907836;23;20055;-86
2022/03/10 14:05:16;;;;;;;9.10;4.00;;;;;;;;;;4882056;29;20043;-87
2022/03/10 14:07:53;;;;;;;7.13;3.42;;;;;;;;;;4893061;29;20032;-88
2022/03/10 14:10:51;;;;;;;7.15;3.28;;;;;;;;;;4886714;29;20032;-93
2022/03/10 14:13:17;;;;;;;7.88;3.85;;;;;;;;;;4865717;29;20076;-86
2022/03/10 14:16:12;;;;;;;7.57;3.50;;;;;;;;;;4883860;29;20025;-94
2022/03/10 14:18:50;;;;;;;7.32;3.63;;;;;;;;;;4885969;29;20044;-86
2022/03/10 14:30:38;;;;;;;8.18;3.42;;;;;;;;;;4943230;23;20052;-88
2022/03/10 14:33:08;;;;;;;7.43;3.90;;;;;;;;;;4887140;29;20031;-89
2022/03/10 14:35:36;;;;;;;7.78;3.80;;;;;;;;;;5022486;23;20058;-87
2022/03/10 14:38:02;;;;;;;8.80;4.10;;;;;;;;;;4863782;29;20034;-86
2022/03/10 14:40:50;;;;;;;8.25;4.10;;;;;;;;;;4868874;29;20044;-93
2022/03/10 14:43:30;;;;;;;14.85;4.15;;;;;;;;;;4857056;29;20336;-88
2022/03/10 14:45:59;;;;;;;6.97;3.78;;;;;;;;;;4854903;29;20045;-91
2022/03/10 14:48:26;;;;;;;9.68;4.00;;;;;;;;;;4864910;29;20104;-91
2022/03/10 14:54:08;;;;;;;9.30;3.92;;;;;;;;;;4858831;29;20036;-91
2022/03/10 14:56:39;;;;;;;8.98;3.28;;;;;;;;;;4850877;29;20030;-86
2022/03/10 15:02:08;;;;;;;11.40;3.90;;;;;;;;;;4907987;23;20060;-87
2022/03/10 15:04:37;;;;;;;8.52;3.83;;;;;;;;;;4914879;23;20072;-87
2022/03/10 15:07:04;;;;;;;8.35;3.97;;;;;;;;;;4882016;29;20040;-88
2022/03/10 15:09:33;;;;;;;8.25;3.33;;;;;;;;;;4889164;29;20455;-86
2022/03/10 15:11:59;;;;;;;8.80;3.50;;;;;;;;;;4882683;29;20037;-88
2022/03/10 15:14:28;;;;;;;8.25;3.20;;;;;;;;;;4887821;29;20485;-86
2022/03/10 15:16:54;;;;;;;8.90;3.45;;;;;;;;;;4873776;29;20029;-87
2022/03/10 15:19:20;;;;;;;6.38;3.10;;;;;;;;;;4897075;29;20058;-87
2022/03/10 15:21:46;;;;;;;5.80;3.13;;;;;;;;;;4893695;29;20032;-88
2022/03/10 15:24:22;;;;;;;6.53;3.47;;;;;;;;;;4891617;29;20032;-88
2022/03/10 15:26:48;;;;;;;8.27;3.78;;;;;;;;;;4892193;29;20032;-90
2022/03/10 15:29:14;;;;;;;6.65;3.22;;;;;;;;;;4897308;29;20037;-88
2022/03/10 15:31:41;;;;;;;7.75;3.22;;;;;;;;;;4898417;29;20040;-90
2022/03/10 15:34:07;;;;;;;7.35;3.53;;;;;;;;;;4876241;29;20056;-88
2022/03/10 15:36:33;;;;;;;8.02;3.40;;;;;;;;;;4873167;29;20482;-88
2022/03/10 15:38:59;;;;;;;6.50;2.90;;;;;;;;;;4875543;29;20032;-89
2022/03/10 15:41:26;;;;;;;8.02;3.42;;;;;;;;;;4897376;29;20482;-87
2022/03/10 15:43:52;;;;;;;6.60;3.35;;;;;;;;;;4898230;29;20069;-87
2022/03/10 15:46:19;;;;;;;14.85;3.60;;;;;;;;;;4874775;29;20028;-86
2022/03/10 15:48:45;;;;;;;7.90;3.05;;;;;;;;;;4899446;29;20036;-88
2022/03/10 15:51:11;;;;;;;7.85;3.78;;;;;;;;;;4896448;29;20489;-89
2022/03/10 15:53:38;;;;;;;7.47;3.25;;;;;;;;;;4898532;29;20027;-87
2022/03/10 15:56:06;;;;;;;6.40;3.10;;;;;;;;;;4897530;29;20025;-87
2022/03/10 15:58:32;;;;;;;5.53;3.00;;;;;;;;;;4889333;29;20025;-87
2022/03/10 16:00:59;;;;;;;7.78;3.55;;;;;;;;;;4874067;29;20029;-87
2022/03/10 16:03:26;;;;;;;7.68;3.42;;;;;;;;;;4874433;29;20024;-88
2022/03/10 16:05:52;;;;;;;5.95;3.10;;;;;;;;;;4899318;29;20056;-88
2022/03/10 16:08:18;;;;;;;6.43;2.80;;;;;;;;;;4898491;29;20052;-87
2022/03/10 16:10:47;;;;;;;8.20;3.70;;;;;;;;;;4875069;29;20024;-87
2022/03/10 16:13:13;;;;;;;5.85;2.88;;;;;;;;;;4899081;29;20040;-88
2022/03/10 16:15:39;;;;;;;8.10;2.70;;;;;;;;;;4896302;29;20025;-86
2022/03/10 16:18:08;;;;;;;7.60;3.83;;;;;;;;;;4889839;29;20032;-86
2022/03/10 16:20:35;;;;;;;12.68;3.42;;;;;;;;;;4897701;29;20044;-86
2022/03/10 16:23:01;;;;;;;9.13;3.50;;;;;;;;;;4893631;29;20104;-88
2022/03/10 16:25:27;;;;;;;6.32;3.17;;;;;;;;;;4896830;29;20127;-89
2022/03/10 16:27:56;;;;;;;11.90;3.60;;;;;;;;;;4895749;29;20123;-86
2022/03/10 16:30:22;;;;;;;9.30;3.80;;;;;;;;;;4873031;29;20501;-87
2022/03/10 16:33:23;;;;;;;7.07;3.53;;;;;;;;;;4889291;29;20025;-89
2022/03/10 16:38:56;;;;;;;13.65;5.32;;;;;;;;;;4890503;29;20079;-89
2022/03/10 16:41:23;;;;;;;9.95;4.82;;;;;;;;;;4869652;29;20048;-86
2022/03/10 16:43:50;;;;;;;56.92;24.00;;;;;;;;;;4871971;29;20501;-85